sensor_id;sensor_type;location;lat;lon;timestamp;pressure;altitude;pressure_sealevel;temperature;humidity
59274;BME280;45044;41.572;24.730;2022-11-15T00:00:57;91899.13;;;0.86;100.00
59274;BME280;45044;41.572;24.730;2022-11-15T00:03:26;91898.47;;;0.80;100.00
59274;BME280;45044;41.572;24.730;2022-11-15T00:05:53;91884.78;;;0.80;100.00
59274;BME280;45044;41.572;24.730;2022-11-15T00:08:20;91891.06;;;0.88;100.00
59274;BME280;45044;41.572;24.730;2022-11-15T00:10:55;91891.53;;;0.90;100.00
59274;BME280;45044;41.572;24.730;2022-11-15T00:13:22;91886.41;;;0.67;100.00
59274;BME280;45044;41.572;24.730;2022-11-15T00:15:48;91868.41;;;0.62;100.00
59274;BME280;45044;41.572;24.730;2022-11-15T00:18:16;91876.03;;;0.67;100.00
59274;BME280;45044;41.572;24.730;2022-11-15T00:20:43;91885.19;;;0.73;100.00
59274;BME280;45044;41.572;24.730;2022-11-15T00:23:10;91883.50;;;0.68;100.00
59274;BME280;45044;41.572;24.730;2022-11-15T00:25:37;91881.06;;;0.63;100.00
59274;BME280;45044;41.572;24.730;2022-11-15T00:28:04;91870.72;;;0.40;100.00
59274;BME280;45044;41.572;24.730;2022-11-15T00:30:31;91873.47;;;0.44;100.00
59274;BME280;45044;41.572;24.730;2022-11-15T00:33:02;91879.00;;;0.51;100.00
59274;BME280;45044;41.572;24.730;2022-11-15T00:35:31;91874.75;;;0.55;100.00
59274;BME280;45044;41.572;24.730;2022-11-15T00:37:59;91873.06;;;0.51;100.00
59274;BME280;45044;41.572;24.730;2022-11-15T00:40:26;91871.34;;;0.46;100.00
59274;BME280;45044;41.572;24.730;2022-11-15T00:42:53;91869.50;;;0.38;100.00
59274;BME280;45044;41.572;24.730;2022-11-15T00:45:20;91861.25;;;0.35;100.00
59274;BME280;45044;41.572;24.730;2022-11-15T00:47:47;91865.19;;;0.33;100.00
59274;BME280;45044;41.572;24.730;2022-11-15T00:50:13;91855.72;;;0.28;100.00
59274;BME280;45044;41.572;24.730;2022-11-15T00:52:41;91858.19;;;0.33;100.00
59274;BME280;45044;41.572;24.730;2022-11-15T00:55:17;91854.03;;;0.23;100.00
59274;BME280;45044;41.572;24.730;2022-11-15T00:57:46;91852.66;;;0.26;100.00
59274;BME280;45044;41.572;24.730;2022-11-15T01:00:13;91841.81;;;0.15;100.00
59274;BME280;45044;41.572;24.730;2022-11-15T01:02:40;91846.84;;;0.20;100.00
59274;BME280;45044;41.572;24.730;2022-11-15T01:05:07;91845.69;;;0.27;100.00
59274;BME280;45044;41.572;24.730;2022-11-15T01:07:34;91844.13;;;0.26;100.00
59274;BME280;45044;41.572;24.730;2022-11-15T01:10:01;91844.78;;;0.31;100.00
59274;BME280;45044;41.572;24.730;2022-11-15T01:12:27;91845.72;;;0.35;100.00
59274;BME280;45044;41.572;24.730;2022-11-15T01:14:54;91839.16;;;0.29;100.00
59274;BME280;45044;41.572;24.730;2022-11-15T01:17:21;91836.69;;;0.24;100.00
59274;BME280;45044;41.572;24.730;2022-11-15T01:19:48;91841.38;;;0.22;100.00
59274;BME280;45044;41.572;24.730;2022-11-15T01:22:15;91823.41;;;-0.06;100.00
59274;BME280;45044;41.572;24.730;2022-11-15T01:24:42;91839.03;;;0.11;100.00
59274;BME280;45044;41.572;24.730;2022-11-15T01:27:08;91831.63;;;0.19;100.00
59274;BME280;45044;41.572;24.730;2022-11-15T01:29:35;91833.91;;;0.20;100.00
59274;BME280;45044;41.572;24.730;2022-11-15T01:32:02;91837.63;;;0.28;100.00
59274;BME280;45044;41.572;24.730;2022-11-15T01:34:29;91836.84;;;0.28;100.00
59274;BME280;45044;41.572;24.730;2022-11-15T01:36:56;91823.88;;;0.19;100.00
59274;BME280;45044;41.572;24.730;2022-11-15T01:39:23;91832.72;;;0.18;100.00
59274;BME280;45044;41.572;24.730;2022-11-15T01:41:50;91833.41;;;0.09;100.00
59274;BME280;45044;41.572;24.730;2022-11-15T01:47:10;91828.44;;;0.22;100.00
59274;BME280;45044;41.572;24.730;2022-11-15T01:49:40;91822.75;;;0.11;100.00
59274;BME280;45044;41.572;24.730;2022-11-15T01:52:13;91832.47;;;0.05;100.00
59274;BME280;45044;41.572;24.730;2022-11-15T01:54:42;91829.88;;;-0.18;100.00
59274;BME280;45044;41.572;24.730;2022-11-15T01:57:10;91826.72;;;-0.15;100.00
59274;BME280;45044;41.572;24.730;2022-11-15T01:59:40;91822.47;;;-0.10;100.00
59274;BME280;45044;41.572;24.730;2022-11-15T02:02:08;91818.53;;;-0.08;100.00
59274;BME280;45044;41.572;24.730;2022-11-15T02:04:39;91811.03;;;0.05;100.00
59274;BME280;45044;41.572;24.730;2022-11-15T02:07:08;91814.59;;;0.18;100.00
59274;BME280;45044;41.572;24.730;2022-11-15T02:09:37;91816.00;;;0.24;100.00
59274;BME280;45044;41.572;24.730;2022-11-15T02:12:03;91816.84;;;0.10;100.00
59274;BME280;45044;41.572;24.730;2022-11-15T02:14:33;91823.59;;;-0.03;100.00
59274;BME280;45044;41.572;24.730;2022-11-15T02:20:20;91822.16;;;-0.09;100.00
59274;BME280;45044;41.572;24.730;2022-11-15T02:35:21;91794.81;;;-0.33;100.00
59274;BME280;45044;41.572;24.730;2022-11-15T02:40:06;91791.50;;;-0.47;100.00
59274;BME280;45044;41.572;24.730;2022-11-15T02:42:41;91775.94;;;-0.56;100.00
59274;BME280;45044;41.572;24.730;2022-11-15T02:45:38;91803.44;;;-0.38;100.00
59274;BME280;45044;41.572;24.730;2022-11-15T02:48:06;91803.59;;;-0.34;100.00
59274;BME280;45044;41.572;24.730;2022-11-15T02:50:34;91808.19;;;-0.31;100.00
59274;BME280;45044;41.572;24.730;2022-11-15T02:53:01;91799.81;;;-0.37;100.00
59274;BME280;45044;41.572;24.730;2022-11-15T02:55:36;91805.59;;;-0.31;100.00
59274;BME280;45044;41.572;24.730;2022-11-15T03:01:04;91817.47;;;-0.30;100.00
59274;BME280;45044;41.572;24.730;2022-11-15T03:09:39;91810.66;;;-0.63;100.00
59274;BME280;45044;41.572;24.730;2022-11-15T03:12:03;91805.28;;;-0.52;100.00
59274;BME280;45044;41.572;24.730;2022-11-15T03:15:22;91797.22;;;-0.51;100.00
59274;BME280;45044;41.572;24.730;2022-11-15T03:18:21;91805.75;;;-0.50;100.00
59274;BME280;45044;41.572;24.730;2022-11-15T03:20:28;91808.97;;;-0.67;100.00
59274;BME280;45044;41.572;24.730;2022-11-15T03:23:00;91796.91;;;-0.72;100.00
59274;BME280;45044;41.572;24.730;2022-11-15T03:25:30;91805.81;;;-0.64;100.00
59274;BME280;45044;41.572;24.730;2022-11-15T03:28:01;91801.13;;;-0.76;100.00
59274;BME280;45044;41.572;24.730;2022-11-15T03:30:32;91805.63;;;-0.68;100.00
59274;BME280;45044;41.572;24.730;2022-11-15T03:33:02;91792.75;;;-0.82;100.00
59274;BME280;45044;41.572;24.730;2022-11-15T03:35:35;91812.59;;;-0.68;100.00
59274;BME280;45044;41.572;24.730;2022-11-15T03:38:24;91810.03;;;-0.82;100.00
59274;BME280;45044;41.572;24.730;2022-11-15T03:41:00;91811.06;;;-0.83;100.00
59274;BME280;45044;41.572;24.730;2022-11-15T03:43:39;91785.47;;;-0.94;100.00
59274;BME280;45044;41.572;24.730;2022-11-15T03:49:03;91802.69;;;-0.89;100.00
59274;BME280;45044;41.572;24.730;2022-11-15T03:51:32;91778.78;;;-0.95;100.00
59274;BME280;45044;41.572;24.730;2022-11-15T03:53:59;91800.47;;;-0.82;100.00
59274;BME280;45044;41.572;24.730;2022-11-15T03:56:25;91798.09;;;-0.78;100.00
59274;BME280;45044;41.572;24.730;2022-11-15T03:58:52;91786.69;;;-0.77;100.00
59274;BME280;45044;41.572;24.730;2022-11-15T04:01:19;91788.56;;;-0.69;100.00
59274;BME280;45044;41.572;24.730;2022-11-15T04:03:45;91771.38;;;-0.74;100.00
59274;BME280;45044;41.572;24.730;2022-11-15T04:06:12;91786.22;;;-0.79;100.00
59274;BME280;45044;41.572;24.730;2022-11-15T04:08:39;91780.31;;;-0.94;100.00
59274;BME280;45044;41.572;24.730;2022-11-15T04:11:06;91772.84;;;-0.95;100.00
59274;BME280;45044;41.572;24.730;2022-11-15T04:13:32;91793.59;;;-0.87;100.00
59274;BME280;45044;41.572;24.730;2022-11-15T04:16:00;91788.06;;;-0.94;100.00
59274;BME280;45044;41.572;24.730;2022-11-15T04:18:26;91797.16;;;-0.97;100.00
59274;BME280;45044;41.572;24.730;2022-11-15T04:20:53;91785.28;;;-0.98;100.00
59274;BME280;45044;41.572;24.730;2022-11-15T04:23:38;91786.66;;;-1.00;100.00
59274;BME280;45044;41.572;24.730;2022-11-15T04:26:23;91789.09;;;-0.81;100.00
59274;BME280;45044;41.572;24.730;2022-11-15T04:28:50;91783.03;;;-0.76;100.00
59274;BME280;45044;41.572;24.730;2022-11-15T04:31:36;91779.16;;;-0.88;100.00
59274;BME280;45044;41.572;24.730;2022-11-15T04:34:02;91783.38;;;-0.92;100.00
59274;BME280;45044;41.572;24.730;2022-11-15T04:36:29;91781.22;;;-1.13;100.00
59274;BME280;45044;41.572;24.730;2022-11-15T04:39:14;91770.88;;;-1.27;100.00
59274;BME280;45044;41.572;24.730;2022-11-15T04:41:43;91781.66;;;-1.11;100.00
59274;BME280;45044;41.572;24.730;2022-11-15T04:44:09;91786.25;;;-1.22;100.00
59274;BME280;45044;41.572;24.730;2022-11-15T04:46:36;91790.19;;;-1.38;100.00
59274;BME280;45044;41.572;24.730;2022-11-15T04:49:03;91794.28;;;-1.23;100.00
59274;BME280;45044;41.572;24.730;2022-11-15T04:51:29;91792.84;;;-1.15;100.00
59274;BME280;45044;41.572;24.730;2022-11-15T04:53:56;91785.09;;;-1.01;100.00
59274;BME280;45044;41.572;24.730;2022-11-15T04:56:23;91784.22;;;-0.82;100.00
59274;BME280;45044;41.572;24.730;2022-11-15T04:58:49;91777.63;;;-0.75;100.00
59274;BME280;45044;41.572;24.730;2022-11-15T05:01:16;91781.09;;;-0.93;100.00
59274;BME280;45044;41.572;24.730;2022-11-15T05:03:44;91775.75;;;-1.11;100.00
59274;BME280;45044;41.572;24.730;2022-11-15T05:06:30;91784.25;;;-1.11;100.00
59274;BME280;45044;41.572;24.730;2022-11-15T05:08:57;91784.81;;;-1.00;100.00
59274;BME280;45044;41.572;24.730;2022-11-15T05:11:24;91783.59;;;-1.02;100.00
59274;BME280;45044;41.572;24.730;2022-11-15T05:13:51;91773.81;;;-1.05;100.00
59274;BME280;45044;41.572;24.730;2022-11-15T05:16:17;91789.69;;;-0.98;100.00
59274;BME280;45044;41.572;24.730;2022-11-15T05:18:44;91784.44;;;-1.07;100.00
59274;BME280;45044;41.572;24.730;2022-11-15T05:21:13;91789.13;;;-1.09;100.00
59274;BME280;45044;41.572;24.730;2022-11-15T05:23:41;91792.34;;;-1.03;100.00
59274;BME280;45044;41.572;24.730;2022-11-15T05:26:08;91787.88;;;-0.98;100.00
59274;BME280;45044;41.572;24.730;2022-11-15T05:28:35;91783.09;;;-1.04;100.00
59274;BME280;45044;41.572;24.730;2022-11-15T05:31:10;91779.53;;;-0.80;100.00
59274;BME280;45044;41.572;24.730;2022-11-15T05:33:40;91780.47;;;-0.76;100.00
59274;BME280;45044;41.572;24.730;2022-11-15T05:38:54;91786.28;;;-1.07;100.00
59274;BME280;45044;41.572;24.730;2022-11-15T05:41:28;91780.41;;;-0.99;100.00
59274;BME280;45044;41.572;24.730;2022-11-15T05:43:58;91780.13;;;-0.98;100.00
59274;BME280;45044;41.572;24.730;2022-11-15T05:46:25;91772.69;;;-0.99;100.00
59274;BME280;45044;41.572;24.730;2022-11-15T05:48:53;91781.75;;;-1.02;100.00
59274;BME280;45044;41.572;24.730;2022-11-15T05:51:21;91778.22;;;-0.92;100.00
59274;BME280;45044;41.572;24.730;2022-11-15T05:53:49;91775.91;;;-0.93;100.00
59274;BME280;45044;41.572;24.730;2022-11-15T05:56:17;91790.47;;;-1.12;100.00
59274;BME280;45044;41.572;24.730;2022-11-15T05:58:44;91792.19;;;-0.93;100.00
59274;BME280;45044;41.572;24.730;2022-11-15T06:01:11;91790.53;;;-0.75;100.00
59274;BME280;45044;41.572;24.730;2022-11-15T06:03:38;91788.50;;;-0.64;100.00
59274;BME280;45044;41.572;24.730;2022-11-15T06:06:05;91789.19;;;-0.49;100.00
59274;BME280;45044;41.572;24.730;2022-11-15T06:08:31;91760.31;;;-0.51;100.00
59274;BME280;45044;41.572;24.730;2022-11-15T06:11:03;91779.88;;;-0.36;100.00
59274;BME280;45044;41.572;24.730;2022-11-15T06:13:30;91783.41;;;-0.32;100.00
59274;BME280;45044;41.572;24.730;2022-11-15T06:15:57;91784.66;;;-0.29;100.00
59274;BME280;45044;41.572;24.730;2022-11-15T06:18:24;91790.28;;;-0.27;100.00
59274;BME280;45044;41.572;24.730;2022-11-15T06:20:51;91779.19;;;-0.05;100.00
59274;BME280;45044;41.572;24.730;2022-11-15T06:23:17;91790.16;;;0.65;100.00
59274;BME280;45044;41.572;24.730;2022-11-15T06:25:44;91790.50;;;1.93;100.00
59274;BME280;45044;41.572;24.730;2022-11-15T06:28:11;91790.25;;;3.20;100.00
59274;BME280;45044;41.572;24.730;2022-11-15T06:30:37;91787.72;;;4.43;100.00
59274;BME280;45044;41.572;24.730;2022-11-15T06:33:05;91791.50;;;4.93;100.00
59274;BME280;45044;41.572;24.730;2022-11-15T06:35:33;91786.63;;;5.70;100.00
59274;BME280;45044;41.572;24.730;2022-11-15T06:38:06;91790.25;;;5.53;98.64
59274;BME280;45044;41.572;24.730;2022-11-15T06:40:37;91790.91;;;5.91;95.56
59274;BME280;45044;41.572;24.730;2022-11-15T06:43:05;91788.34;;;6.80;84.96
59274;BME280;45044;41.572;24.730;2022-11-15T06:45:32;91783.03;;;6.16;87.37
59274;BME280;45044;41.572;24.730;2022-11-15T06:47:59;91787.31;;;6.69;89.05
59274;BME280;45044;41.572;24.730;2022-11-15T06:50:26;91788.31;;;8.24;74.34
59274;BME280;45044;41.572;24.730;2022-11-15T06:52:52;91779.63;;;7.61;75.23
59274;BME280;45044;41.572;24.730;2022-11-15T06:55:20;91771.41;;;8.85;69.11
59274;BME280;45044;41.572;24.730;2022-11-15T06:57:52;91779.19;;;8.38;69.67
59274;BME280;45044;41.572;24.730;2022-11-15T07:00:20;91776.38;;;9.17;67.83
59274;BME280;45044;41.572;24.730;2022-11-15T07:02:47;91778.53;;;9.97;62.43
59274;BME280;45044;41.572;24.730;2022-11-15T07:05:15;91772.88;;;10.63;59.84
59274;BME280;45044;41.572;24.730;2022-11-15T07:07:42;91778.50;;;11.07;56.14
59274;BME280;45044;41.572;24.730;2022-11-15T07:10:09;91764.59;;;11.67;55.61
59274;BME280;45044;41.572;24.730;2022-11-15T07:12:36;91754.75;;;11.56;55.70
59274;BME280;45044;41.572;24.730;2022-11-15T07:15:03;91759.59;;;12.36;54.83
59274;BME280;45044;41.572;24.730;2022-11-15T07:17:30;91766.47;;;13.14;51.87
59274;BME280;45044;41.572;24.730;2022-11-15T07:19:56;91758.94;;;12.68;51.96
59274;BME280;45044;41.572;24.730;2022-11-15T07:22:23;91751.00;;;13.01;50.75
59274;BME280;45044;41.572;24.730;2022-11-15T07:24:50;91757.75;;;12.51;51.08
59274;BME280;45044;41.572;24.730;2022-11-15T07:27:16;91758.13;;;12.46;51.17
59274;BME280;45044;41.572;24.730;2022-11-15T07:29:43;91740.78;;;13.40;50.14
59274;BME280;45044;41.572;24.730;2022-11-15T07:32:10;91751.78;;;11.69;53.00
59274;BME280;45044;41.572;24.730;2022-11-15T07:34:37;91748.94;;;12.03;53.44
59274;BME280;45044;41.572;24.730;2022-11-15T07:37:03;91737.03;;;13.63;48.53
59274;BME280;45044;41.572;24.730;2022-11-15T07:39:30;91743.06;;;13.23;50.78
59274;BME280;45044;41.572;24.730;2022-11-15T07:41:57;91738.16;;;13.33;48.10
59274;BME280;45044;41.572;24.730;2022-11-15T07:44:53;91746.81;;;12.42;51.47
59274;BME280;45044;41.572;24.730;2022-11-15T07:47:19;91735.47;;;12.16;51.28
59274;BME280;45044;41.572;24.730;2022-11-15T07:49:47;91736.69;;;12.73;50.98
59274;BME280;45044;41.572;24.730;2022-11-15T07:52:13;91737.06;;;12.97;49.16
59274;BME280;45044;41.572;24.730;2022-11-15T07:54:40;91754.03;;;12.96;49.99
59274;BME280;45044;41.572;24.730;2022-11-15T07:57:07;91731.81;;;12.97;49.70
59274;BME280;45044;41.572;24.730;2022-11-15T07:59:35;91744.94;;;12.39;51.05
59274;BME280;45044;41.572;24.730;2022-11-15T08:02:02;91733.97;;;13.68;47.78
59274;BME280;45044;41.572;24.730;2022-11-15T08:04:29;91735.53;;;12.60;49.26
59274;BME280;45044;41.572;24.730;2022-11-15T08:06:55;91727.63;;;10.88;54.54
59274;BME280;45044;41.572;24.730;2022-11-15T08:09:23;91732.38;;;12.06;51.33
59274;BME280;45044;41.572;24.730;2022-11-15T08:11:50;91721.19;;;12.39;51.49
59274;BME280;45044;41.572;24.730;2022-11-15T08:14:17;91734.41;;;12.57;49.95
59274;BME280;45044;41.572;24.730;2022-11-15T08:16:43;91721.53;;;13.50;47.72
59274;BME280;45044;41.572;24.730;2022-11-15T08:19:10;91718.22;;;12.69;48.99
59274;BME280;45044;41.572;24.730;2022-11-15T08:21:37;91710.34;;;14.21;45.17
59274;BME280;45044;41.572;24.730;2022-11-15T08:24:04;91714.38;;;13.44;46.90
59274;BME280;45044;41.572;24.730;2022-11-15T08:26:30;91715.19;;;12.53;48.07
59274;BME280;45044;41.572;24.730;2022-11-15T08:28:57;91722.63;;;12.10;49.72
59274;BME280;45044;41.572;24.730;2022-11-15T08:31:24;91728.72;;;12.29;49.31
59274;BME280;45044;41.572;24.730;2022-11-15T08:33:51;91709.53;;;12.76;48.71
59274;BME280;45044;41.572;24.730;2022-11-15T08:36:17;91723.78;;;12.17;50.11
59274;BME280;45044;41.572;24.730;2022-11-15T08:38:44;91720.13;;;11.54;50.47
59274;BME280;45044;41.572;24.730;2022-11-15T08:41:16;91709.72;;;11.87;51.45
59274;BME280;45044;41.572;24.730;2022-11-15T08:43:46;91711.75;;;12.19;50.58
59274;BME280;45044;41.572;24.730;2022-11-15T08:46:13;91700.81;;;13.34;49.92
59274;BME280;45044;41.572;24.730;2022-11-15T08:48:40;91703.88;;;12.89;48.90
59274;BME280;45044;41.572;24.730;2022-11-15T08:51:06;91688.00;;;13.33;47.37
59274;BME280;45044;41.572;24.730;2022-11-15T08:53:34;91690.34;;;12.57;50.12
59274;BME280;45044;41.572;24.730;2022-11-15T08:56:01;91688.81;;;12.56;49.89
59274;BME280;45044;41.572;24.730;2022-11-15T08:58:28;91683.56;;;12.75;47.34
59274;BME280;45044;41.572;24.730;2022-11-15T09:00:55;91682.06;;;12.77;48.54
59274;BME280;45044;41.572;24.730;2022-11-15T09:03:22;91677.09;;;13.09;46.15
59274;BME280;45044;41.572;24.730;2022-11-15T09:05:54;91676.75;;;12.99;47.08
59274;BME280;45044;41.572;24.730;2022-11-15T09:08:20;91671.13;;;12.90;47.97
59274;BME280;45044;41.572;24.730;2022-11-15T09:11:09;91663.16;;;13.12;48.10
59274;BME280;45044;41.572;24.730;2022-11-15T09:13:36;91666.91;;;13.18;48.20
59274;BME280;45044;41.572;24.730;2022-11-15T09:16:04;91664.28;;;13.07;44.66
59274;BME280;45044;41.572;24.730;2022-11-15T09:18:31;91650.25;;;13.54;45.12
59274;BME280;45044;41.572;24.730;2022-11-15T09:20:59;91655.09;;;13.74;47.32
59274;BME280;45044;41.572;24.730;2022-11-15T09:23:26;91644.13;;;13.79;44.98
59274;BME280;45044;41.572;24.730;2022-11-15T09:26:01;91640.41;;;13.65;45.55
59274;BME280;45044;41.572;24.730;2022-11-15T09:28:29;91627.41;;;14.00;44.11
59274;BME280;45044;41.572;24.730;2022-11-15T09:31:14;91635.41;;;13.86;44.89
59274;BME280;45044;41.572;24.730;2022-11-15T09:33:47;91596.31;;;14.19;43.56
59274;BME280;45044;41.572;24.730;2022-11-15T09:36:14;91618.38;;;14.51;43.97
59274;BME280;45044;41.572;24.730;2022-11-15T09:38:40;91611.91;;;14.03;44.49
59274;BME280;45044;41.572;24.730;2022-11-15T09:49:23;91595.50;;;14.26;46.58
59274;BME280;45044;41.572;24.730;2022-11-15T09:51:51;91590.59;;;14.28;46.44
59274;BME280;45044;41.572;24.730;2022-11-15T09:54:27;91585.88;;;13.97;45.65
59274;BME280;45044;41.572;24.730;2022-11-15T09:57:17;91585.97;;;13.83;46.70
59274;BME280;45044;41.572;24.730;2022-11-15T09:59:58;91568.38;;;14.18;45.90
59274;BME280;45044;41.572;24.730;2022-11-15T10:03:19;91582.59;;;14.81;44.60
59274;BME280;45044;41.572;24.730;2022-11-15T10:05:50;91576.00;;;15.01;44.46
59274;BME280;45044;41.572;24.730;2022-11-15T10:08:40;91573.22;;;15.47;45.56
59274;BME280;45044;41.572;24.730;2022-11-15T10:11:15;91570.88;;;15.21;45.51
59274;BME280;45044;41.572;24.730;2022-11-15T10:14:24;91562.97;;;15.17;45.67
59274;BME280;45044;41.572;24.730;2022-11-15T10:16:57;91568.19;;;15.25;45.75
59274;BME280;45044;41.572;24.730;2022-11-15T10:22:23;91552.88;;;15.05;46.24
59274;BME280;45044;41.572;24.730;2022-11-15T10:24:58;91547.69;;;15.29;47.40
59274;BME280;45044;41.572;24.730;2022-11-15T10:27:26;91551.69;;;15.44;46.79
59274;BME280;45044;41.572;24.730;2022-11-15T10:29:53;91544.31;;;15.56;47.56
59274;BME280;45044;41.572;24.730;2022-11-15T10:32:21;91540.78;;;15.94;46.62
59274;BME280;45044;41.572;24.730;2022-11-15T10:34:49;91545.84;;;15.57;47.58
59274;BME280;45044;41.572;24.730;2022-11-15T10:37:30;91533.91;;;15.73;46.46
59274;BME280;45044;41.572;24.730;2022-11-15T10:40:19;91507.63;;;15.82;45.83
59274;BME280;45044;41.572;24.730;2022-11-15T10:42:46;91521.28;;;16.32;46.33
59274;BME280;45044;41.572;24.730;2022-11-15T10:45:25;91508.53;;;16.71;43.85
59274;BME280;45044;41.572;24.730;2022-11-15T10:47:53;91507.91;;;17.45;44.02
59274;BME280;45044;41.572;24.730;2022-11-15T10:50:29;91504.38;;;17.31;43.83
59274;BME280;45044;41.572;24.730;2022-11-15T10:52:56;91502.97;;;16.42;45.51
59274;BME280;45044;41.572;24.730;2022-11-15T10:55:27;91497.84;;;16.75;45.25
59274;BME280;45044;41.572;24.730;2022-11-15T10:58:00;91492.28;;;17.47;44.51
59274;BME280;45044;41.572;24.730;2022-11-15T11:00:46;91484.91;;;17.18;44.94
59274;BME280;45044;41.572;24.730;2022-11-15T11:03:40;91483.63;;;17.06;45.69
59274;BME280;45044;41.572;24.730;2022-11-15T11:06:16;91478.78;;;16.80;45.96
59274;BME280;45044;41.572;24.730;2022-11-15T11:09:04;91468.41;;;17.27;45.71
59274;BME280;45044;41.572;24.730;2022-11-15T11:11:49;91472.50;;;17.31;46.16
59274;BME280;45044;41.572;24.730;2022-11-15T11:14:24;91459.97;;;16.30;46.64
59274;BME280;45044;41.572;24.730;2022-11-15T11:24:56;91446.38;;;15.76;47.59
59274;BME280;45044;41.572;24.730;2022-11-15T11:27:38;91443.91;;;15.65;48.29
59274;BME280;45044;41.572;24.730;2022-11-15T11:30:32;91443.44;;;15.71;48.19
59274;BME280;45044;41.572;24.730;2022-11-15T11:44:42;91423.19;;;16.73;46.73
59274;BME280;45044;41.572;24.730;2022-11-15T11:47:24;91418.69;;;16.49;46.92
59274;BME280;45044;41.572;24.730;2022-11-15T11:50:11;91421.31;;;17.10;45.97
59274;BME280;45044;41.572;24.730;2022-11-15T11:53:12;91412.41;;;17.38;44.93
59274;BME280;45044;41.572;24.730;2022-11-15T11:55:44;91413.31;;;16.94;46.31
59274;BME280;45044;41.572;24.730;2022-11-15T11:58:29;91411.44;;;17.48;44.61
59274;BME280;45044;41.572;24.730;2022-11-15T12:01:24;91411.81;;;17.30;44.61
59274;BME280;45044;41.572;24.730;2022-11-15T12:09:39;91404.59;;;17.30;43.73
59274;BME280;45044;41.572;24.730;2022-11-15T12:12:30;91407.38;;;17.77;42.50
59274;BME280;45044;41.572;24.730;2022-11-15T12:15:04;91405.75;;;17.96;42.10
59274;BME280;45044;41.572;24.730;2022-11-15T12:17:38;91403.97;;;16.85;44.54
59274;BME280;45044;41.572;24.730;2022-11-15T12:20:21;91409.13;;;16.11;45.74
59274;BME280;45044;41.572;24.730;2022-11-15T12:22:56;91404.06;;;16.61;44.92
59274;BME280;45044;41.572;24.730;2022-11-15T12:31:30;91393.72;;;16.67;45.73
59274;BME280;45044;41.572;24.730;2022-11-15T12:33:57;91395.88;;;17.30;43.97
59274;BME280;45044;41.572;24.730;2022-11-15T12:36:37;91396.28;;;17.11;45.25
59274;BME280;45044;41.572;24.730;2022-11-15T12:39:06;91376.72;;;17.02;45.20
59274;BME280;45044;41.572;24.730;2022-11-15T12:41:37;91396.47;;;17.71;43.54
59274;BME280;45044;41.572;24.730;2022-11-15T12:44:10;91395.63;;;17.91;43.64
59274;BME280;45044;41.572;24.730;2022-11-15T13:02:35;91390.13;;;16.37;47.72
59274;BME280;45044;41.572;24.730;2022-11-15T13:30:54;91370.47;;;14.87;48.78
59274;BME280;45044;41.572;24.730;2022-11-15T13:36:29;91371.47;;;14.65;50.55
59274;BME280;45044;41.572;24.730;2022-11-15T13:39:00;91375.63;;;14.31;51.46
59274;BME280;45044;41.572;24.730;2022-11-15T13:41:30;91372.56;;;14.36;53.60
59274;BME280;45044;41.572;24.730;2022-11-15T13:43:58;91365.56;;;14.19;55.37
59274;BME280;45044;41.572;24.730;2022-11-15T13:46:32;91366.53;;;13.97;56.18
59274;BME280;45044;41.572;24.730;2022-11-15T13:49:02;91367.53;;;14.11;54.80
59274;BME280;45044;41.572;24.730;2022-11-15T13:54:31;91364.25;;;13.57;59.70
59274;BME280;45044;41.572;24.730;2022-11-15T13:57:04;91355.41;;;13.25;62.63
59274;BME280;45044;41.572;24.730;2022-11-15T13:59:51;91360.22;;;12.81;66.20
59274;BME280;45044;41.572;24.730;2022-11-15T14:02:25;91361.19;;;12.34;70.80
59274;BME280;45044;41.572;24.730;2022-11-15T14:05:02;91363.38;;;12.57;71.04
59274;BME280;45044;41.572;24.730;2022-11-15T14:07:29;91360.50;;;12.19;73.83
59274;BME280;45044;41.572;24.730;2022-11-15T14:09:57;91368.78;;;12.03;75.34
59274;BME280;45044;41.572;24.730;2022-11-15T14:14:53;91366.56;;;10.88;81.94
59274;BME280;45044;41.572;24.730;2022-11-15T14:19:50;91365.84;;;11.09;84.66
59274;BME280;45044;41.572;24.730;2022-11-15T14:22:26;91351.13;;;10.64;84.61
59274;BME280;45044;41.572;24.730;2022-11-15T14:27:41;91355.63;;;10.60;90.55
59274;BME280;45044;41.572;24.730;2022-11-15T14:30:15;91343.16;;;10.42;88.37
59274;BME280;45044;41.572;24.730;2022-11-15T14:32:49;91369.34;;;10.24;90.77
59274;BME280;45044;41.572;24.730;2022-11-15T14:35:21;91361.09;;;10.26;95.67
59274;BME280;45044;41.572;24.730;2022-11-15T14:37:48;91364.13;;;10.28;95.72
59274;BME280;45044;41.572;24.730;2022-11-15T14:40:21;91358.03;;;10.09;95.01
59274;BME280;45044;41.572;24.730;2022-11-15T14:42:49;91362.88;;;10.03;98.20
59274;BME280;45044;41.572;24.730;2022-11-15T14:45:19;91365.13;;;9.98;98.33
59274;BME280;45044;41.572;24.730;2022-11-15T14:47:46;91371.44;;;9.89;99.94
59274;BME280;45044;41.572;24.730;2022-11-15T14:50:15;91373.59;;;9.73;100.00
59274;BME280;45044;41.572;24.730;2022-11-15T14:52:43;91362.59;;;9.49;100.00
59274;BME280;45044;41.572;24.730;2022-11-15T14:55:34;91356.03;;;9.28;100.00
59274;BME280;45044;41.572;24.730;2022-11-15T14:58:05;91355.00;;;8.94;100.00
59274;BME280;45044;41.572;24.730;2022-11-15T15:00:36;91364.28;;;8.81;100.00
59274;BME280;45044;41.572;24.730;2022-11-15T15:03:04;91364.41;;;8.57;100.00
59274;BME280;45044;41.572;24.730;2022-11-15T15:07:59;91362.13;;;8.21;100.00
59274;BME280;45044;41.572;24.730;2022-11-15T15:10:39;91363.38;;;8.00;100.00
59274;BME280;45044;41.572;24.730;2022-11-15T15:13:20;91371.19;;;7.97;100.00
59274;BME280;45044;41.572;24.730;2022-11-15T15:15:47;91370.03;;;7.67;100.00
59274;BME280;45044;41.572;24.730;2022-11-15T15:18:15;91368.06;;;7.33;100.00
59274;BME280;45044;41.572;24.730;2022-11-15T15:20:44;91369.16;;;7.55;100.00
59274;BME280;45044;41.572;24.730;2022-11-15T15:23:17;91371.97;;;7.43;100.00